sensor_id;sensor_type;location;lat;lon;timestamp;temperature;humidity
12384;DHT22;6256;63.808;20.336;2023-02-17T00:02:04;-1.30;99.90
12384;DHT22;6256;63.808;20.336;2023-02-17T00:04:35;-1.40;99.90
12384;DHT22;6256;63.808;20.336;2023-02-17T00:07:00;-1.40;99.90
12384;DHT22;6256;63.808;20.336;2023-02-17T00:09:26;-1.50;99.90
12384;DHT22;6256;63.808;20.336;2023-02-17T00:11:52;-1.50;99.90
12384;DHT22;6256;63.808;20.336;2023-02-17T00:14:17;-1.30;99.90
12384;DHT22;6256;63.808;20.336;2023-02-17T00:16:44;-1.30;99.90
12384;DHT22;6256;63.808;20.336;2023-02-17T00:19:11;-1.40;99.90
12384;DHT22;6256;63.808;20.336;2023-02-17T00:21:52;-1.50;99.90
12384;DHT22;6256;63.808;20.336;2023-02-17T00:24:18;-1.40;99.90
12384;DHT22;6256;63.808;20.336;2023-02-17T00:26:44;-1.40;99.90
12384;DHT22;6256;63.808;20.336;2023-02-17T00:29:09;-1.40;99.90
12384;DHT22;6256;63.808;20.336;2023-02-17T00:31:35;-1.40;99.90
12384;DHT22;6256;63.808;20.336;2023-02-17T00:34:01;-1.50;99.90
12384;DHT22;6256;63.808;20.336;2023-02-17T00:36:27;-1.50;99.90
12384;DHT22;6256;63.808;20.336;2023-02-17T00:38:54;-1.50;99.90
12384;DHT22;6256;63.808;20.336;2023-02-17T00:41:21;-1.50;99.90
12384;DHT22;6256;63.808;20.336;2023-02-17T00:43:47;-1.50;99.90
12384;DHT22;6256;63.808;20.336;2023-02-17T00:46:14;-1.50;99.90
12384;DHT22;6256;63.808;20.336;2023-02-17T00:48:40;-1.50;99.90
12384;DHT22;6256;63.808;20.336;2023-02-17T00:51:06;-1.50;99.90
12384;DHT22;6256;63.808;20.336;2023-02-17T00:53:31;-1.50;99.90
12384;DHT22;6256;63.808;20.336;2023-02-17T00:55:57;-1.60;99.90
12384;DHT22;6256;63.808;20.336;2023-02-17T00:58:23;-1.60;99.90
12384;DHT22;6256;63.808;20.336;2023-02-17T01:00:49;-1.50;99.90
12384;DHT22;6256;63.808;20.336;2023-02-17T01:03:14;-1.50;99.90
12384;DHT22;6256;63.808;20.336;2023-02-17T01:05:47;-1.60;99.90
12384;DHT22;6256;63.808;20.336;2023-02-17T01:08:14;-1.50;99.90
12384;DHT22;6256;63.808;20.336;2023-02-17T01:10:42;-1.60;99.90
12384;DHT22;6256;63.808;20.336;2023-02-17T01:13:09;-1.40;99.90
12384;DHT22;6256;63.808;20.336;2023-02-17T01:15:39;-1.50;99.90
12384;DHT22;6256;63.808;20.336;2023-02-17T01:18:05;-1.60;99.90
12384;DHT22;6256;63.808;20.336;2023-02-17T01:20:38;-1.60;99.90
12384;DHT22;6256;63.808;20.336;2023-02-17T01:23:05;-1.70;99.90
12384;DHT22;6256;63.808;20.336;2023-02-17T01:25:34;-1.70;99.90
12384;DHT22;6256;63.808;20.336;2023-02-17T01:28:00;-1.70;99.90
12384;DHT22;6256;63.808;20.336;2023-02-17T01:30:26;-1.70;99.90
12384;DHT22;6256;63.808;20.336;2023-02-17T01:32:51;-1.70;99.90
12384;DHT22;6256;63.808;20.336;2023-02-17T01:35:17;-1.80;99.90
12384;DHT22;6256;63.808;20.336;2023-02-17T01:37:42;-1.80;99.90
12384;DHT22;6256;63.808;20.336;2023-02-17T01:40:10;-1.90;99.90
12384;DHT22;6256;63.808;20.336;2023-02-17T01:42:36;-1.90;99.90
12384;DHT22;6256;63.808;20.336;2023-02-17T01:50:15;-1.90;99.90
12384;DHT22;6256;63.808;20.336;2023-02-17T01:52:42;-1.90;99.90
12384;DHT22;6256;63.808;20.336;2023-02-17T01:55:12;-1.90;99.90
12384;DHT22;6256;63.808;20.336;2023-02-17T01:57:41;-1.90;99.90
12384;DHT22;6256;63.808;20.336;2023-02-17T02:00:09;-1.90;99.90
12384;DHT22;6256;63.808;20.336;2023-02-17T02:02:36;-1.80;99.90
12384;DHT22;6256;63.808;20.336;2023-02-17T02:05:03;-1.90;99.90
12384;DHT22;6256;63.808;20.336;2023-02-17T02:07:34;-1.90;99.90
12384;DHT22;6256;63.808;20.336;2023-02-17T02:10:01;-2.00;99.90
12384;DHT22;6256;63.808;20.336;2023-02-17T02:12:29;-2.00;99.90
12384;DHT22;6256;63.808;20.336;2023-02-17T02:15:01;-2.10;99.90
12384;DHT22;6256;63.808;20.336;2023-02-17T02:24:12;-2.10;99.90
12384;DHT22;6256;63.808;20.336;2023-02-17T02:34:40;-2.20;99.90
12384;DHT22;6256;63.808;20.336;2023-02-17T02:39:42;-2.20;99.90
12384;DHT22;6256;63.808;20.336;2023-02-17T02:42:13;-2.30;99.90
12384;DHT22;6256;63.808;20.336;2023-02-17T02:44:39;-2.30;99.90
12384;DHT22;6256;63.808;20.336;2023-02-17T03:01:36;-2.40;99.90
12384;DHT22;6256;63.808;20.336;2023-02-17T03:04:17;-2.30;99.90
12384;DHT22;6256;63.808;20.336;2023-02-17T03:07:00;-2.20;99.90
12384;DHT22;6256;63.808;20.336;2023-02-17T03:09:28;-2.20;99.90
12384;DHT22;6256;63.808;20.336;2023-02-17T03:11:55;-2.30;99.90
12384;DHT22;6256;63.808;20.336;2023-02-17T03:14:22;-2.30;99.90
12384;DHT22;6256;63.808;20.336;2023-02-17T03:16:49;-2.30;99.90
12384;DHT22;6256;63.808;20.336;2023-02-17T03:19:17;-2.30;99.90
12384;DHT22;6256;63.808;20.336;2023-02-17T03:21:55;-2.30;99.90
12384;DHT22;6256;63.808;20.336;2023-02-17T03:24:22;-2.30;99.90
12384;DHT22;6256;63.808;20.336;2023-02-17T03:26:48;-2.30;99.90
12384;DHT22;6256;63.808;20.336;2023-02-17T03:29:13;-2.40;99.90
12384;DHT22;6256;63.808;20.336;2023-02-17T03:31:40;-2.50;99.90
12384;DHT22;6256;63.808;20.336;2023-02-17T03:34:06;-2.50;99.90
12384;DHT22;6256;63.808;20.336;2023-02-17T03:36:32;-2.50;99.90
12384;DHT22;6256;63.808;20.336;2023-02-17T03:38:58;-2.50;99.90
12384;DHT22;6256;63.808;20.336;2023-02-17T03:41:24;-2.50;99.90
12384;DHT22;6256;63.808;20.336;2023-02-17T03:43:50;-2.40;99.90
12384;DHT22;6256;63.808;20.336;2023-02-17T03:46:16;-2.40;99.90
12384;DHT22;6256;63.808;20.336;2023-02-17T03:48:42;-2.40;99.90
12384;DHT22;6256;63.808;20.336;2023-02-17T03:51:21;-2.40;99.90
12384;DHT22;6256;63.808;20.336;2023-02-17T03:53:47;-2.30;99.90
12384;DHT22;6256;63.808;20.336;2023-02-17T03:56:13;-2.40;99.90
12384;DHT22;6256;63.808;20.336;2023-02-17T03:58:40;-2.40;99.90
12384;DHT22;6256;63.808;20.336;2023-02-17T04:01:08;-2.40;99.90
12384;DHT22;6256;63.808;20.336;2023-02-17T04:03:35;-2.40;99.90
12384;DHT22;6256;63.808;20.336;2023-02-17T04:06:01;-2.40;99.90
12384;DHT22;6256;63.808;20.336;2023-02-17T04:08:27;-2.40;99.90
12384;DHT22;6256;63.808;20.336;2023-02-17T04:10:54;-2.30;99.90
12384;DHT22;6256;63.808;20.336;2023-02-17T04:13:20;-2.40;99.90
12384;DHT22;6256;63.808;20.336;2023-02-17T04:15:46;-2.50;99.90
12384;DHT22;6256;63.808;20.336;2023-02-17T04:18:12;-2.50;99.90
12384;DHT22;6256;63.808;20.336;2023-02-17T04:20:38;-2.60;99.90
12384;DHT22;6256;63.808;20.336;2023-02-17T04:23:03;-2.60;99.90
12384;DHT22;6256;63.808;20.336;2023-02-17T04:25:29;-2.60;99.90
12384;DHT22;6256;63.808;20.336;2023-02-17T04:27:57;-2.70;99.90
12384;DHT22;6256;63.808;20.336;2023-02-17T04:30:23;-2.70;99.90
12384;DHT22;6256;63.808;20.336;2023-02-17T04:32:48;-2.70;99.90
12384;DHT22;6256;63.808;20.336;2023-02-17T04:35:14;-2.60;99.90
12384;DHT22;6256;63.808;20.336;2023-02-17T04:37:40;-2.70;99.90
12384;DHT22;6256;63.808;20.336;2023-02-17T04:40:06;-2.70;99.90
12384;DHT22;6256;63.808;20.336;2023-02-17T04:42:35;-2.70;99.90
12384;DHT22;6256;63.808;20.336;2023-02-17T04:45:01;-2.70;99.90
12384;DHT22;6256;63.808;20.336;2023-02-17T04:47:27;-2.70;99.90
12384;DHT22;6256;63.808;20.336;2023-02-17T04:49:53;-2.70;99.90
12384;DHT22;6256;63.808;20.336;2023-02-17T04:52:19;-2.60;99.90
12384;DHT22;6256;63.808;20.336;2023-02-17T04:54:44;-2.70;99.90
12384;DHT22;6256;63.808;20.336;2023-02-17T04:57:10;-2.70;99.90
12384;DHT22;6256;63.808;20.336;2023-02-17T04:59:36;-2.70;99.90
12384;DHT22;6256;63.808;20.336;2023-02-17T05:02:05;-2.80;99.90
12384;DHT22;6256;63.808;20.336;2023-02-17T05:04:30;-2.80;99.90
12384;DHT22;6256;63.808;20.336;2023-02-17T05:06:56;-2.80;99.90
12384;DHT22;6256;63.808;20.336;2023-02-17T05:09:22;-2.70;99.90
12384;DHT22;6256;63.808;20.336;2023-02-17T05:11:48;-2.60;99.90
12384;DHT22;6256;63.808;20.336;2023-02-17T05:14:13;-2.50;99.90
12384;DHT22;6256;63.808;20.336;2023-02-17T05:16:39;-2.50;99.90
12384;DHT22;6256;63.808;20.336;2023-02-17T05:19:05;-2.60;99.90
12384;DHT22;6256;63.808;20.336;2023-02-17T05:21:30;-2.60;99.90
12384;DHT22;6256;63.808;20.336;2023-02-17T05:23:57;-2.60;99.90
12384;DHT22;6256;63.808;20.336;2023-02-17T05:26:23;-2.50;99.90
12384;DHT22;6256;63.808;20.336;2023-02-17T05:28:49;-2.50;99.90
12384;DHT22;6256;63.808;20.336;2023-02-17T05:31:15;-2.50;99.90
12384;DHT22;6256;63.808;20.336;2023-02-17T05:33:41;-2.50;99.90
12384;DHT22;6256;63.808;20.336;2023-02-17T05:36:09;-2.40;99.90
12384;DHT22;6256;63.808;20.336;2023-02-17T05:38:35;-2.40;99.90
12384;DHT22;6256;63.808;20.336;2023-02-17T05:41:01;-2.30;99.90
12384;DHT22;6256;63.808;20.336;2023-02-17T05:43:27;-2.30;99.90
12384;DHT22;6256;63.808;20.336;2023-02-17T05:45:53;-2.30;99.90
12384;DHT22;6256;63.808;20.336;2023-02-17T05:48:19;-2.30;99.90
12384;DHT22;6256;63.808;20.336;2023-02-17T05:50:44;-2.40;99.90
12384;DHT22;6256;63.808;20.336;2023-02-17T05:53:10;-2.30;99.90
12384;DHT22;6256;63.808;20.336;2023-02-17T05:55:36;-2.30;99.90
12384;DHT22;6256;63.808;20.336;2023-02-17T05:58:02;-2.30;99.90
12384;DHT22;6256;63.808;20.336;2023-02-17T06:00:28;-2.20;99.90
12384;DHT22;6256;63.808;20.336;2023-02-17T06:02:54;-2.10;99.90
12384;DHT22;6256;63.808;20.336;2023-02-17T06:05:20;-2.10;99.90
12384;DHT22;6256;63.808;20.336;2023-02-17T06:07:45;-2.10;99.90
12384;DHT22;6256;63.808;20.336;2023-02-17T06:10:11;-2.10;99.90
12384;DHT22;6256;63.808;20.336;2023-02-17T06:12:37;-2.10;99.90
12384;DHT22;6256;63.808;20.336;2023-02-17T06:15:03;-2.10;99.90
12384;DHT22;6256;63.808;20.336;2023-02-17T06:17:28;-2.10;99.90
12384;DHT22;6256;63.808;20.336;2023-02-17T06:19:54;-2.20;99.90
12384;DHT22;6256;63.808;20.336;2023-02-17T06:22:20;-2.30;99.90
12384;DHT22;6256;63.808;20.336;2023-02-17T06:24:46;-2.30;99.90
12384;DHT22;6256;63.808;20.336;2023-02-17T06:27:11;-2.40;99.90
12384;DHT22;6256;63.808;20.336;2023-02-17T06:29:37;-2.30;99.90
12384;DHT22;6256;63.808;20.336;2023-02-17T06:32:03;-2.40;99.90
12384;DHT22;6256;63.808;20.336;2023-02-17T06:34:29;-2.40;99.90
12384;DHT22;6256;63.808;20.336;2023-02-17T06:36:55;-2.40;99.90
12384;DHT22;6256;63.808;20.336;2023-02-17T06:39:21;-2.50;99.90
12384;DHT22;6256;63.808;20.336;2023-02-17T06:41:46;-2.50;99.90
12384;DHT22;6256;63.808;20.336;2023-02-17T06:44:12;-2.50;99.90
12384;DHT22;6256;63.808;20.336;2023-02-17T06:46:38;-2.40;99.90
12384;DHT22;6256;63.808;20.336;2023-02-17T06:49:04;-2.30;99.90
12384;DHT22;6256;63.808;20.336;2023-02-17T06:51:29;-2.30;99.90
12384;DHT22;6256;63.808;20.336;2023-02-17T06:53:55;-2.20;99.90
12384;DHT22;6256;63.808;20.336;2023-02-17T06:56:21;-2.20;99.90
12384;DHT22;6256;63.808;20.336;2023-02-17T06:58:46;-2.20;99.90
12384;DHT22;6256;63.808;20.336;2023-02-17T07:01:17;-2.30;99.90
12384;DHT22;6256;63.808;20.336;2023-02-17T07:03:43;-2.30;99.90
12384;DHT22;6256;63.808;20.336;2023-02-17T07:06:09;-2.30;99.90
12384;DHT22;6256;63.808;20.336;2023-02-17T07:08:35;-2.20;99.90
12384;DHT22;6256;63.808;20.336;2023-02-17T07:11:08;-2.20;99.90
12384;DHT22;6256;63.808;20.336;2023-02-17T07:13:34;-2.30;99.90
12384;DHT22;6256;63.808;20.336;2023-02-17T07:16:00;-2.30;99.90
12384;DHT22;6256;63.808;20.336;2023-02-17T07:18:26;-2.30;99.90
12384;DHT22;6256;63.808;20.336;2023-02-17T07:20:52;-2.30;99.90
12384;DHT22;6256;63.808;20.336;2023-02-17T07:23:17;-2.30;99.90
12384;DHT22;6256;63.808;20.336;2023-02-17T07:25:43;-2.30;99.90
12384;DHT22;6256;63.808;20.336;2023-02-17T07:28:09;-2.30;99.90
12384;DHT22;6256;63.808;20.336;2023-02-17T07:30:38;-2.30;99.90
12384;DHT22;6256;63.808;20.336;2023-02-17T07:33:05;-2.30;99.90
12384;DHT22;6256;63.808;20.336;2023-02-17T07:35:31;-2.30;99.90
12384;DHT22;6256;63.808;20.336;2023-02-17T07:37:57;-2.30;99.90
12384;DHT22;6256;63.808;20.336;2023-02-17T07:40:23;-2.40;99.90
12384;DHT22;6256;63.808;20.336;2023-02-17T07:42:49;-2.20;99.90
12384;DHT22;6256;63.808;20.336;2023-02-17T07:45:15;-2.20;99.90
12384;DHT22;6256;63.808;20.336;2023-02-17T07:47:40;-2.20;99.90
12384;DHT22;6256;63.808;20.336;2023-02-17T07:50:07;-2.20;99.90
12384;DHT22;6256;63.808;20.336;2023-02-17T07:52:33;-2.10;99.90
12384;DHT22;6256;63.808;20.336;2023-02-17T07:54:58;-2.10;99.90
12384;DHT22;6256;63.808;20.336;2023-02-17T07:57:24;-2.10;99.90
12384;DHT22;6256;63.808;20.336;2023-02-17T07:59:50;-2.20;99.90
12384;DHT22;6256;63.808;20.336;2023-02-17T08:02:15;-2.20;99.90
12384;DHT22;6256;63.808;20.336;2023-02-17T08:04:41;-2.20;99.90
12384;DHT22;6256;63.808;20.336;2023-02-17T08:07:07;-2.10;99.90
12384;DHT22;6256;63.808;20.336;2023-02-17T08:09:33;-2.10;99.90
12384;DHT22;6256;63.808;20.336;2023-02-17T08:12:18;-2.10;99.90
12384;DHT22;6256;63.808;20.336;2023-02-17T08:15:08;-2.10;99.90
12384;DHT22;6256;63.808;20.336;2023-02-17T08:17:34;-2.10;99.90
12384;DHT22;6256;63.808;20.336;2023-02-17T08:20:00;-2.10;99.90
12384;DHT22;6256;63.808;20.336;2023-02-17T08:22:26;-2.10;99.90
12384;DHT22;6256;63.808;20.336;2023-02-17T08:24:51;-2.00;99.90
12384;DHT22;6256;63.808;20.336;2023-02-17T08:27:18;-1.80;99.90
12384;DHT22;6256;63.808;20.336;2023-02-17T08:29:44;-1.60;99.90
12384;DHT22;6256;63.808;20.336;2023-02-17T08:32:11;-1.60;99.90
12384;DHT22;6256;63.808;20.336;2023-02-17T08:34:37;-1.40;99.90
12384;DHT22;6256;63.808;20.336;2023-02-17T08:37:05;-1.30;99.90
12384;DHT22;6256;63.808;20.336;2023-02-17T08:39:31;-1.10;99.90
12384;DHT22;6256;63.808;20.336;2023-02-17T08:41:58;-1.00;99.90
12384;DHT22;6256;63.808;20.336;2023-02-17T08:44:24;-0.90;99.90
12384;DHT22;6256;63.808;20.336;2023-02-17T08:46:51;-0.80;99.90
12384;DHT22;6256;63.808;20.336;2023-02-17T08:49:19;-0.80;99.90
12384;DHT22;6256;63.808;20.336;2023-02-17T08:51:48;-0.80;99.90
12384;DHT22;6256;63.808;20.336;2023-02-17T08:54:14;-0.70;99.90
12384;DHT22;6256;63.808;20.336;2023-02-17T08:56:41;-0.60;99.90
12384;DHT22;6256;63.808;20.336;2023-02-17T08:59:08;-0.50;99.90
12384;DHT22;6256;63.808;20.336;2023-02-17T09:01:34;-0.30;99.90
12384;DHT22;6256;63.808;20.336;2023-02-17T09:04:02;-0.20;99.90
12384;DHT22;6256;63.808;20.336;2023-02-17T09:06:40;-0.20;99.90
12384;DHT22;6256;63.808;20.336;2023-02-17T09:09:09;-0.10;99.90
12384;DHT22;6256;63.808;20.336;2023-02-17T09:11:35;0.00;99.90
12384;DHT22;6256;63.808;20.336;2023-02-17T09:14:01;0.00;99.90
12384;DHT22;6256;63.808;20.336;2023-02-17T09:16:27;0.00;99.90
12384;DHT22;6256;63.808;20.336;2023-02-17T09:18:53;0.10;99.90
12384;DHT22;6256;63.808;20.336;2023-02-17T09:21:20;0.10;99.90
12384;DHT22;6256;63.808;20.336;2023-02-17T09:23:46;0.10;99.90
12384;DHT22;6256;63.808;20.336;2023-02-17T09:26:13;0.10;99.90
12384;DHT22;6256;63.808;20.336;2023-02-17T09:28:39;0.10;99.90
12384;DHT22;6256;63.808;20.336;2023-02-17T09:31:10;0.10;99.90
12384;DHT22;6256;63.808;20.336;2023-02-17T09:33:36;0.10;99.90
12384;DHT22;6256;63.808;20.336;2023-02-17T09:36:04;0.20;99.90
12384;DHT22;6256;63.808;20.336;2023-02-17T09:38:30;0.20;99.90
12384;DHT22;6256;63.808;20.336;2023-02-17T09:41:00;0.20;99.90
12384;DHT22;6256;63.808;20.336;2023-02-17T09:43:29;0.20;99.90
12384;DHT22;6256;63.808;20.336;2023-02-17T09:46:05;0.20;99.90
12384;DHT22;6256;63.808;20.336;2023-02-17T09:48:33;0.30;99.90
12384;DHT22;6256;63.808;20.336;2023-02-17T09:51:05;0.30;99.90
12384;DHT22;6256;63.808;20.336;2023-02-17T09:56:16;0.40;99.90
12384;DHT22;6256;63.808;20.336;2023-02-17T09:58:53;0.40;99.90
12384;DHT22;6256;63.808;20.336;2023-02-17T10:01:23;0.40;99.90
12384;DHT22;6256;63.808;20.336;2023-02-17T10:06:58;0.50;99.90
12384;DHT22;6256;63.808;20.336;2023-02-17T10:09:44;0.60;99.90
12384;DHT22;6256;63.808;20.336;2023-02-17T10:12:18;0.60;99.90
12384;DHT22;6256;63.808;20.336;2023-02-17T10:14:52;0.70;99.90
12384;DHT22;6256;63.808;20.336;2023-02-17T10:20:24;0.80;99.90
12384;DHT22;6256;63.808;20.336;2023-02-17T10:23:12;0.80;99.90
12384;DHT22;6256;63.808;20.336;2023-02-17T10:29:06;0.80;99.90
12384;DHT22;6256;63.808;20.336;2023-02-17T10:31:47;0.80;99.90
12384;DHT22;6256;63.808;20.336;2023-02-17T10:37:20;0.70;99.90
12384;DHT22;6256;63.808;20.336;2023-02-17T10:39:52;0.80;99.90
12384;DHT22;6256;63.808;20.336;2023-02-17T10:42:34;0.80;99.90
12384;DHT22;6256;63.808;20.336;2023-02-17T10:45:27;0.80;99.90
12384;DHT22;6256;63.808;20.336;2023-02-17T10:48:01;0.80;99.90
12384;DHT22;6256;63.808;20.336;2023-02-17T10:50:28;0.80;99.90
12384;DHT22;6256;63.808;20.336;2023-02-17T10:52:55;0.80;99.90
12384;DHT22;6256;63.808;20.336;2023-02-17T10:55:34;0.80;99.90
12384;DHT22;6256;63.808;20.336;2023-02-17T10:58:12;0.90;99.90
12384;DHT22;6256;63.808;20.336;2023-02-17T11:00:41;0.90;99.90
12384;DHT22;6256;63.808;20.336;2023-02-17T11:03:19;0.80;99.90
12384;DHT22;6256;63.808;20.336;2023-02-17T11:05:55;0.90;99.90
12384;DHT22;6256;63.808;20.336;2023-02-17T11:08:44;0.90;99.90
12384;DHT22;6256;63.808;20.336;2023-02-17T11:13:45;0.80;99.90
12384;DHT22;6256;63.808;20.336;2023-02-17T11:18:58;0.70;99.90
12384;DHT22;6256;63.808;20.336;2023-02-17T11:21:28;0.70;99.90
12384;DHT22;6256;63.808;20.336;2023-02-17T11:23:58;0.70;99.90
12384;DHT22;6256;63.808;20.336;2023-02-17T11:26:26;0.70;99.90
12384;DHT22;6256;63.808;20.336;2023-02-17T11:28:52;0.70;99.90
12384;DHT22;6256;63.808;20.336;2023-02-17T11:31:36;0.70;99.90
12384;DHT22;6256;63.808;20.336;2023-02-17T11:34:13;0.80;99.90
12384;DHT22;6256;63.808;20.336;2023-02-17T11:36:39;0.80;99.90
12384;DHT22;6256;63.808;20.336;2023-02-17T11:39:20;0.80;99.90
12384;DHT22;6256;63.808;20.336;2023-02-17T11:41:46;0.80;99.90
12384;DHT22;6256;63.808;20.336;2023-02-17T11:44:21;0.70;99.90
12384;DHT22;6256;63.808;20.336;2023-02-17T11:47:14;0.70;99.90
12384;DHT22;6256;63.808;20.336;2023-02-17T12:05:52;0.90;99.90
12384;DHT22;6256;63.808;20.336;2023-02-17T12:17:18;0.80;99.90
12384;DHT22;6256;63.808;20.336;2023-02-17T12:22:19;0.80;99.90
12384;DHT22;6256;63.808;20.336;2023-02-17T12:35:50;0.90;99.90
12384;DHT22;6256;63.808;20.336;2023-02-17T12:38:31;0.90;99.90
12384;DHT22;6256;63.808;20.336;2023-02-17T12:41:17;0.90;99.90
12384;DHT22;6256;63.808;20.336;2023-02-17T12:44:12;0.90;99.90
12384;DHT22;6256;63.808;20.336;2023-02-17T12:46:44;0.90;99.90
12384;DHT22;6256;63.808;20.336;2023-02-17T12:49:24;1.00;99.90
12384;DHT22;6256;63.808;20.336;2023-02-17T12:52:27;0.90;99.90
12384;DHT22;6256;63.808;20.336;2023-02-17T13:00:14;1.00;99.90
12384;DHT22;6256;63.808;20.336;2023-02-17T13:02:41;1.00;99.90
12384;DHT22;6256;63.808;20.336;2023-02-17T13:05:21;1.10;99.90
12384;DHT22;6256;63.808;20.336;2023-02-17T13:10:39;1.10;99.90
12384;DHT22;6256;63.808;20.336;2023-02-17T13:13:12;1.00;99.90
12384;DHT22;6256;63.808;20.336;2023-02-17T13:16:09;1.00;99.90
12384;DHT22;6256;63.808;20.336;2023-02-17T13:18:38;1.10;99.90
12384;DHT22;6256;63.808;20.336;2023-02-17T13:26:28;1.10;99.90
12384;DHT22;6256;63.808;20.336;2023-02-17T13:31:47;1.20;99.90
12384;DHT22;6256;63.808;20.336;2023-02-17T13:36:52;1.10;99.90
12384;DHT22;6256;63.808;20.336;2023-02-17T13:41:58;1.00;99.90
12384;DHT22;6256;63.808;20.336;2023-02-17T13:44:30;1.00;99.90
12384;DHT22;6256;63.808;20.336;2023-02-17T13:46:59;1.00;99.90
12384;DHT22;6256;63.808;20.336;2023-02-17T13:49:28;1.00;99.90
12384;DHT22;6256;63.808;20.336;2023-02-17T13:54:57;1.00;99.90
12384;DHT22;6256;63.808;20.336;2023-02-17T13:57:27;1.10;99.90
12384;DHT22;6256;63.808;20.336;2023-02-17T14:00:05;1.10;99.90
12384;DHT22;6256;63.808;20.336;2023-02-17T14:02:31;1.10;99.90
12384;DHT22;6256;63.808;20.336;2023-02-17T14:04:59;1.10;99.90
12384;DHT22;6256;63.808;20.336;2023-02-17T14:07:25;1.10;99.90
12384;DHT22;6256;63.808;20.336;2023-02-17T14:09:53;1.10;99.90
12384;DHT22;6256;63.808;20.336;2023-02-17T14:12:22;1.10;99.90
12384;DHT22;6256;63.808;20.336;2023-02-17T14:14:48;1.00;99.90
12384;DHT22;6256;63.808;20.336;2023-02-17T14:17:30;1.00;99.90
12384;DHT22;6256;63.808;20.336;2023-02-17T14:19:57;1.00;99.90
12384;DHT22;6256;63.808;20.336;2023-02-17T14:25:11;1.10;99.90
12384;DHT22;6256;63.808;20.336;2023-02-17T14:27:45;1.00;99.90
12384;DHT22;6256;63.808;20.336;2023-02-17T14:30:27;1.10;99.90
12384;DHT22;6256;63.808;20.336;2023-02-17T14:35:52;1.10;99.90
12384;DHT22;6256;63.808;20.336;2023-02-17T14:41:06;1.00;99.90
12384;DHT22;6256;63.808;20.336;2023-02-17T14:43:33;1.00;99.90
12384;DHT22;6256;63.808;20.336;2023-02-17T14:46:00;1.00;99.90
12384;DHT22;6256;63.808;20.336;2023-02-17T14:48:26;0.90;99.90
12384;DHT22;6256;63.808;20.336;2023-02-17T14:50:52;0.90;99.90
12384;DHT22;6256;63.808;20.336;2023-02-17T14:53:30;0.90;99.90
12384;DHT22;6256;63.808;20.336;2023-02-17T14:55:58;0.90;99.90
12384;DHT22;6256;63.808;20.336;2023-02-17T14:58:25;0.90;99.90
12384;DHT22;6256;63.808;20.336;2023-02-17T15:00:52;0.90;99.90
12384;DHT22;6256;63.808;20.336;2023-02-17T15:03:18;0.90;99.90
12384;DHT22;6256;63.808;20.336;2023-02-17T15:05:44;0.90;99.90
12384;DHT22;6256;63.808;20.336;2023-02-17T15:08:18;0.90;99.90
12384;DHT22;6256;63.808;20.336;2023-02-17T15:10:45;0.90;99.90
12384;DHT22;6256;63.808;20.336;2023-02-17T15:13:17;0.90;99.90
12384;DHT22;6256;63.808;20.336;2023-02-17T15:15:43;0.90;99.90
12384;DHT22;6256;63.808;20.336;2023-02-17T15:18:10;1.00;99.90
12384;DHT22;6256;63.808;20.336;2023-02-17T15:20:37;1.00;99.90
12384;DHT22;6256;63.808;20.336;2023-02-17T15:23:12;1.00;99.90
12384;DHT22;6256;63.808;20.336;2023-02-17T15:25:38;1.00;99.90
12384;DHT22;6256;63.808;20.336;2023-02-17T15:28:04;1.00;99.90
12384;DHT22;6256;63.808;20.336;2023-02-17T15:30:30;1.00;99.90
12384;DHT22;6256;63.808;20.336;2023-02-17T15:32:56;1.00;99.90
12384;DHT22;6256;63.808;20.336;2023-02-17T15:35:24;1.00;99.90
12384;DHT22;6256;63.808;20.336;2023-02-17T15:37:51;1.00;99.90
12384;DHT22;6256;63.808;20.336;2023-02-17T15:40:22;1.00;99.90
12384;DHT22;6256;63.808;20.336;2023-02-17T15:42:56;1.00;99.90
12384;DHT22;6256;63.808;20.336;2023-02-17T15:45:23;1.00;99.90
12384;DHT22;6256;63.808;20.336;2023-02-17T15:47:50;1.00;99.90
12384;DHT22;6256;63.808;20.336;2023-02-17T15:50:21;1.00;99.90
12384;DHT22;6256;63.808;20.336;2023-02-17T15:52:50;1.00;99.90
12384;DHT22;6256;63.808;20.336;2023-02-17T15:55:20;1.00;99.90
12384;DHT22;6256;63.808;20.336;2023-02-17T15:57:52;1.00;99.90
12384;DHT22;6256;63.808;20.336;2023-02-17T16:00:21;1.00;99.90
12384;DHT22;6256;63.808;20.336;2023-02-17T16:02:47;1.10;99.90
12384;DHT22;6256;63.808;20.336;2023-02-17T16:05:14;1.10;99.90
12384;DHT22;6256;63.808;20.336;2023-02-17T16:07:40;1.00;99.90
12384;DHT22;6256;63.808;20.336;2023-02-17T16:10:08;1.10;99.90
12384;DHT22;6256;63.808;20.336;2023-02-17T16:12:35;1.10;99.90
12384;DHT22;6256;63.808;20.336;2023-02-17T16:15:00;1.10;99.90
12384;DHT22;6256;63.808;20.336;2023-02-17T16:17:26;1.10;99.90
12384;DHT22;6256;63.808;20.336;2023-02-17T16:19:52;1.10;99.90
12384;DHT22;6256;63.808;20.336;2023-02-17T16:22:18;1.10;99.90
12384;DHT22;6256;63.808;20.336;2023-02-17T16:24:43;1.10;99.90
12384;DHT22;6256;63.808;20.336;2023-02-17T16:27:12;1.10;99.90
12384;DHT22;6256;63.808;20.336;2023-02-17T16:29:40;1.10;99.90
12384;DHT22;6256;63.808;20.336;2023-02-17T16:32:06;1.10;99.90
12384;DHT22;6256;63.808;20.336;2023-02-17T16:34:31;1.10;99.90
12384;DHT22;6256;63.808;20.336;2023-02-17T16:37:02;1.10;99.90
12384;DHT22;6256;63.808;20.336;2023-02-17T16:39:29;1.10;99.90
12384;DHT22;6256;63.808;20.336;2023-02-17T16:41:54;1.10;99.90
12384;DHT22;6256;63.808;20.336;2023-02-17T16:44:21;1.10;99.90
12384;DHT22;6256;63.808;20.336;2023-02-17T16:46:52;1.20;99.90
12384;DHT22;6256;63.808;20.336;2023-02-17T16:49:27;1.10;99.90
12384;DHT22;6256;63.808;20.336;2023-02-17T16:52:01;1.20;99.90
12384;DHT22;6256;63.808;20.336;2023-02-17T16:54:31;1.20;99.90
12384;DHT22;6256;63.808;20.336;2023-02-17T16:56:57;1.20;99.90
12384;DHT22;6256;63.808;20.336;2023-02-17T16:59:24;1.20;99.90
12384;DHT22;6256;63.808;20.336;2023-02-17T17:01:51;1.20;99.90
12384;DHT22;6256;63.808;20.336;2023-02-17T17:04:20;1.20;99.90
12384;DHT22;6256;63.808;20.336;2023-02-17T17:06:48;1.20;99.90
12384;DHT22;6256;63.808;20.336;2023-02-17T17:09:16;1.20;99.90
12384;DHT22;6256;63.808;20.336;2023-02-17T17:11:42;1.20;99.90
12384;DHT22;6256;63.808;20.336;2023-02-17T17:14:08;1.20;99.90
12384;DHT22;6256;63.808;20.336;2023-02-17T17:16:34;1.30;99.90
12384;DHT22;6256;63.808;20.336;2023-02-17T17:19:02;1.20;99.90
12384;DHT22;6256;63.808;20.336;2023-02-17T17:21:28;1.30;99.90
12384;DHT22;6256;63.808;20.336;2023-02-17T17:23:54;1.30;99.90
12384;DHT22;6256;63.808;20.336;2023-02-17T17:26:39;1.30;99.90
12384;DHT22;6256;63.808;20.336;2023-02-17T17:29:07;1.30;99.90
12384;DHT22;6256;63.808;20.336;2023-02-17T17:31:33;1.30;99.90
12384;DHT22;6256;63.808;20.336;2023-02-17T17:33:59;1.40;99.90
12384;DHT22;6256;63.808;20.336;2023-02-17T17:36:39;1.30;99.90
12384;DHT22;6256;63.808;20.336;2023-02-17T17:39:10;1.30;99.90
12384;DHT22;6256;63.808;20.336;2023-02-17T17:41:37;1.30;99.90
12384;DHT22;6256;63.808;20.336;2023-02-17T17:44:03;1.30;99.90
12384;DHT22;6256;63.808;20.336;2023-02-17T17:46:31;1.40;99.90
12384;DHT22;6256;63.808;20.336;2023-02-17T17:48:59;1.40;99.90
12384;DHT22;6256;63.808;20.336;2023-02-17T17:51:27;1.40;99.90
12384;DHT22;6256;63.808;20.336;2023-02-17T17:53:54;1.40;99.90
12384;DHT22;6256;63.808;20.336;2023-02-17T17:56:26;1.40;99.90